sensor_id;sensor_type;location;lat;lon;timestamp;P1;durP1;ratioP1;P2;durP2;ratioP2
61572;SDS011;47465;43.094;12.434;2024-03-22T00:01:55;11.00;;;4.65;;
61572;SDS011;47465;43.094;12.434;2024-03-22T00:04:23;12.30;;;5.50;;
61572;SDS011;47465;43.094;12.434;2024-03-22T00:06:49;10.55;;;5.82;;
61572;SDS011;47465;43.094;12.434;2024-03-22T00:09:15;11.18;;;5.35;;
61572;SDS011;47465;43.094;12.434;2024-03-22T00:11:42;10.52;;;5.25;;
61572;SDS011;47465;43.094;12.434;2024-03-22T00:14:08;12.25;;;5.78;;
61572;SDS011;47465;43.094;12.434;2024-03-22T00:16:35;10.23;;;5.40;;
61572;SDS011;47465;43.094;12.434;2024-03-22T00:19:01;9.25;;;4.80;;
61572;SDS011;47465;43.094;12.434;2024-03-22T00:21:29;13.52;;;5.40;;
61572;SDS011;47465;43.094;12.434;2024-03-22T00:23:55;11.98;;;5.47;;
61572;SDS011;47465;43.094;12.434;2024-03-22T00:26:21;9.48;;;4.68;;
61572;SDS011;47465;43.094;12.434;2024-03-22T00:28:48;9.65;;;5.15;;
61572;SDS011;47465;43.094;12.434;2024-03-22T00:31:14;15.55;;;5.60;;
61572;SDS011;47465;43.094;12.434;2024-03-22T00:33:41;10.63;;;5.88;;
61572;SDS011;47465;43.094;12.434;2024-03-22T00:36:07;10.93;;;5.70;;
61572;SDS011;47465;43.094;12.434;2024-03-22T00:38:35;14.93;;;6.07;;
61572;SDS011;47465;43.094;12.434;2024-03-22T00:41:01;13.38;;;5.78;;
61572;SDS011;47465;43.094;12.434;2024-03-22T00:43:28;12.25;;;5.88;;
61572;SDS011;47465;43.094;12.434;2024-03-22T00:45:54;10.18;;;5.57;;
61572;SDS011;47465;43.094;12.434;2024-03-22T00:48:20;10.68;;;6.20;;
61572;SDS011;47465;43.094;12.434;2024-03-22T00:50:46;10.20;;;5.78;;
61572;SDS011;47465;43.094;12.434;2024-03-22T00:53:12;12.85;;;6.13;;
61572;SDS011;47465;43.094;12.434;2024-03-22T00:55:39;12.23;;;6.00;;
61572;SDS011;47465;43.094;12.434;2024-03-22T00:58:08;12.35;;;5.95;;
61572;SDS011;47465;43.094;12.434;2024-03-22T01:00:34;11.82;;;6.30;;
61572;SDS011;47465;43.094;12.434;2024-03-22T01:03:02;12.15;;;6.00;;
61572;SDS011;47465;43.094;12.434;2024-03-22T01:05:28;11.60;;;5.55;;
61572;SDS011;47465;43.094;12.434;2024-03-22T01:07:54;10.80;;;5.38;;
61572;SDS011;47465;43.094;12.434;2024-03-22T01:10:20;12.65;;;5.30;;
61572;SDS011;47465;43.094;12.434;2024-03-22T01:12:47;9.65;;;5.78;;
61572;SDS011;47465;43.094;12.434;2024-03-22T01:15:13;8.73;;;5.18;;
61572;SDS011;47465;43.094;12.434;2024-03-22T01:17:39;11.93;;;5.03;;
61572;SDS011;47465;43.094;12.434;2024-03-22T01:20:06;9.95;;;4.43;;
61572;SDS011;47465;43.094;12.434;2024-03-22T01:22:32;10.02;;;5.03;;
61572;SDS011;47465;43.094;12.434;2024-03-22T01:24:58;7.43;;;3.60;;
61572;SDS011;47465;43.094;12.434;2024-03-22T01:27:24;8.02;;;4.32;;
61572;SDS011;47465;43.094;12.434;2024-03-22T01:29:51;11.23;;;4.50;;
61572;SDS011;47465;43.094;12.434;2024-03-22T01:32:17;10.07;;;4.40;;
61572;SDS011;47465;43.094;12.434;2024-03-22T01:34:43;6.05;;;3.67;;
61572;SDS011;47465;43.094;12.434;2024-03-22T01:37:09;8.75;;;4.07;;
61572;SDS011;47465;43.094;12.434;2024-03-22T01:39:35;8.88;;;4.65;;
61572;SDS011;47465;43.094;12.434;2024-03-22T01:42:01;8.65;;;4.75;;
61572;SDS011;47465;43.094;12.434;2024-03-22T01:44:28;8.40;;;5.18;;
61572;SDS011;47465;43.094;12.434;2024-03-22T01:46:55;7.85;;;4.65;;
61572;SDS011;47465;43.094;12.434;2024-03-22T01:49:22;8.35;;;4.57;;
61572;SDS011;47465;43.094;12.434;2024-03-22T01:51:51;9.52;;;5.57;;
61572;SDS011;47465;43.094;12.434;2024-03-22T01:54:17;9.57;;;4.68;;
61572;SDS011;47465;43.094;12.434;2024-03-22T01:56:45;8.23;;;4.60;;
61572;SDS011;47465;43.094;12.434;2024-03-22T01:59:12;9.70;;;5.15;;
61572;SDS011;47465;43.094;12.434;2024-03-22T02:01:38;8.02;;;4.40;;
61572;SDS011;47465;43.094;12.434;2024-03-22T02:04:07;9.57;;;4.22;;
61572;SDS011;47465;43.094;12.434;2024-03-22T02:06:33;7.93;;;4.20;;
61572;SDS011;47465;43.094;12.434;2024-03-22T02:09:00;6.22;;;3.88;;
61572;SDS011;47465;43.094;12.434;2024-03-22T02:11:26;7.47;;;3.95;;
61572;SDS011;47465;43.094;12.434;2024-03-22T02:13:53;8.15;;;3.92;;
61572;SDS011;47465;43.094;12.434;2024-03-22T02:16:19;5.75;;;3.35;;
61572;SDS011;47465;43.094;12.434;2024-03-22T02:18:45;9.00;;;4.25;;
61572;SDS011;47465;43.094;12.434;2024-03-22T02:21:12;8.98;;;4.38;;
61572;SDS011;47465;43.094;12.434;2024-03-22T02:23:40;8.20;;;4.47;;
61572;SDS011;47465;43.094;12.434;2024-03-22T02:26:06;9.68;;;4.85;;
61572;SDS011;47465;43.094;12.434;2024-03-22T02:28:33;8.77;;;4.95;;
61572;SDS011;47465;43.094;12.434;2024-03-22T02:31:00;10.38;;;4.97;;
61572;SDS011;47465;43.094;12.434;2024-03-22T02:33:27;8.32;;;4.65;;
61572;SDS011;47465;43.094;12.434;2024-03-22T02:35:53;10.25;;;5.35;;
61572;SDS011;47465;43.094;12.434;2024-03-22T02:38:19;10.60;;;5.22;;
61572;SDS011;47465;43.094;12.434;2024-03-22T02:40:47;9.90;;;6.13;;
61572;SDS011;47465;43.094;12.434;2024-03-22T02:43:14;8.63;;;5.10;;
61572;SDS011;47465;43.094;12.434;2024-03-22T02:45:40;10.60;;;5.32;;
61572;SDS011;47465;43.094;12.434;2024-03-22T02:48:07;10.40;;;5.57;;
61572;SDS011;47465;43.094;12.434;2024-03-22T02:50:33;12.57;;;5.53;;
61572;SDS011;47465;43.094;12.434;2024-03-22T02:52:59;8.13;;;4.20;;
61572;SDS011;47465;43.094;12.434;2024-03-22T02:55:25;9.80;;;4.25;;
61572;SDS011;47465;43.094;12.434;2024-03-22T02:57:52;7.93;;;4.53;;
61572;SDS011;47465;43.094;12.434;2024-03-22T03:00:18;10.80;;;4.53;;
61572;SDS011;47465;43.094;12.434;2024-03-22T03:02:44;7.78;;;4.82;;
61572;SDS011;47465;43.094;12.434;2024-03-22T03:05:11;10.57;;;4.75;;
61572;SDS011;47465;43.094;12.434;2024-03-22T03:07:36;8.68;;;4.05;;
61572;SDS011;47465;43.094;12.434;2024-03-22T03:10:02;8.68;;;4.18;;
61572;SDS011;47465;43.094;12.434;2024-03-22T03:12:29;8.90;;;4.32;;
61572;SDS011;47465;43.094;12.434;2024-03-22T03:14:56;10.27;;;4.00;;
61572;SDS011;47465;43.094;12.434;2024-03-22T03:17:22;6.28;;;3.63;;
61572;SDS011;47465;43.094;12.434;2024-03-22T03:19:48;9.40;;;4.20;;
61572;SDS011;47465;43.094;12.434;2024-03-22T03:22:14;7.22;;;4.15;;
61572;SDS011;47465;43.094;12.434;2024-03-22T03:24:40;7.50;;;4.35;;
61572;SDS011;47465;43.094;12.434;2024-03-22T03:27:06;7.80;;;3.67;;
61572;SDS011;47465;43.094;12.434;2024-03-22T03:29:32;7.72;;;3.55;;
61572;SDS011;47465;43.094;12.434;2024-03-22T03:32:00;6.13;;;3.22;;
61572;SDS011;47465;43.094;12.434;2024-03-22T03:34:26;6.15;;;3.00;;
61572;SDS011;47465;43.094;12.434;2024-03-22T03:36:52;6.50;;;2.95;;
61572;SDS011;47465;43.094;12.434;2024-03-22T03:39:19;4.95;;;2.65;;
61572;SDS011;47465;43.094;12.434;2024-03-22T03:41:46;5.97;;;3.03;;
61572;SDS011;47465;43.094;12.434;2024-03-22T03:44:12;7.10;;;3.45;;
61572;SDS011;47465;43.094;12.434;2024-03-22T03:46:38;5.35;;;2.03;;
61572;SDS011;47465;43.094;12.434;2024-03-22T03:49:05;6.13;;;2.53;;
61572;SDS011;47465;43.094;12.434;2024-03-22T03:51:31;6.18;;;2.65;;
61572;SDS011;47465;43.094;12.434;2024-03-22T03:53:57;5.38;;;2.58;;
61572;SDS011;47465;43.094;12.434;2024-03-22T03:56:23;4.07;;;2.22;;
61572;SDS011;47465;43.094;12.434;2024-03-22T03:58:49;6.15;;;2.85;;
61572;SDS011;47465;43.094;12.434;2024-03-22T04:01:15;6.50;;;2.78;;
61572;SDS011;47465;43.094;12.434;2024-03-22T04:03:43;4.45;;;2.45;;
61572;SDS011;47465;43.094;12.434;2024-03-22T04:06:10;4.72;;;2.67;;
61572;SDS011;47465;43.094;12.434;2024-03-22T04:08:36;4.15;;;2.45;;
61572;SDS011;47465;43.094;12.434;2024-03-22T04:11:02;4.30;;;2.75;;
61572;SDS011;47465;43.094;12.434;2024-03-22T04:13:28;6.00;;;2.35;;
61572;SDS011;47465;43.094;12.434;2024-03-22T04:15:57;4.82;;;2.40;;
61572;SDS011;47465;43.094;12.434;2024-03-22T04:18:25;5.05;;;2.08;;
61572;SDS011;47465;43.094;12.434;2024-03-22T04:20:54;6.72;;;2.40;;
61572;SDS011;47465;43.094;12.434;2024-03-22T04:23:22;6.43;;;2.45;;
61572;SDS011;47465;43.094;12.434;2024-03-22T04:25:53;4.95;;;2.22;;
61572;SDS011;47465;43.094;12.434;2024-03-22T04:28:19;3.58;;;2.00;;
61572;SDS011;47465;43.094;12.434;2024-03-22T04:30:53;3.65;;;2.05;;
61572;SDS011;47465;43.094;12.434;2024-03-22T04:33:20;6.72;;;2.28;;
61572;SDS011;47465;43.094;12.434;2024-03-22T04:35:46;2.60;;;1.50;;
61572;SDS011;47465;43.094;12.434;2024-03-22T04:38:12;5.13;;;1.92;;
61572;SDS011;47465;43.094;12.434;2024-03-22T04:40:39;3.15;;;1.80;;
61572;SDS011;47465;43.094;12.434;2024-03-22T04:43:06;4.15;;;1.83;;
61572;SDS011;47465;43.094;12.434;2024-03-22T04:45:32;3.00;;;1.90;;
61572;SDS011;47465;43.094;12.434;2024-03-22T04:47:58;4.50;;;2.00;;
61572;SDS011;47465;43.094;12.434;2024-03-22T04:50:26;2.83;;;1.90;;
61572;SDS011;47465;43.094;12.434;2024-03-22T04:52:52;3.42;;;2.00;;
61572;SDS011;47465;43.094;12.434;2024-03-22T04:55:18;3.47;;;1.70;;
61572;SDS011;47465;43.094;12.434;2024-03-22T04:57:45;5.47;;;2.20;;
61572;SDS011;47465;43.094;12.434;2024-03-22T05:00:11;3.22;;;1.77;;
61572;SDS011;47465;43.094;12.434;2024-03-22T05:02:38;3.67;;;1.80;;
61572;SDS011;47465;43.094;12.434;2024-03-22T05:05:05;4.50;;;2.08;;
61572;SDS011;47465;43.094;12.434;2024-03-22T05:07:33;2.90;;;1.30;;
61572;SDS011;47465;43.094;12.434;2024-03-22T05:09:59;2.55;;;1.20;;
61572;SDS011;47465;43.094;12.434;2024-03-22T05:12:25;3.42;;;1.20;;
61572;SDS011;47465;43.094;12.434;2024-03-22T05:14:53;4.82;;;1.77;;
61572;SDS011;47465;43.094;12.434;2024-03-22T05:17:19;1.95;;;1.08;;
61572;SDS011;47465;43.094;12.434;2024-03-22T05:19:45;3.22;;;1.20;;
61572;SDS011;47465;43.094;12.434;2024-03-22T05:22:11;1.98;;;1.27;;
61572;SDS011;47465;43.094;12.434;2024-03-22T05:24:37;3.08;;;1.35;;
61572;SDS011;47465;43.094;12.434;2024-03-22T05:27:03;6.00;;;1.75;;
61572;SDS011;47465;43.094;12.434;2024-03-22T05:29:29;4.65;;;1.67;;
61572;SDS011;47465;43.094;12.434;2024-03-22T05:31:57;2.22;;;1.25;;
61572;SDS011;47465;43.094;12.434;2024-03-22T05:34:23;8.60;;;2.20;;
61572;SDS011;47465;43.094;12.434;2024-03-22T05:36:49;4.28;;;1.38;;
61572;SDS011;47465;43.094;12.434;2024-03-22T05:39:15;1.27;;;1.00;;
61572;SDS011;47465;43.094;12.434;2024-03-22T05:41:41;2.60;;;1.23;;
61572;SDS011;47465;43.094;12.434;2024-03-22T05:44:07;3.05;;;1.17;;
61572;SDS011;47465;43.094;12.434;2024-03-22T05:46:33;2.75;;;1.42;;
61572;SDS011;47465;43.094;12.434;2024-03-22T05:49:02;3.30;;;1.50;;
61572;SDS011;47465;43.094;12.434;2024-03-22T05:51:28;2.72;;;1.25;;
61572;SDS011;47465;43.094;12.434;2024-03-22T05:53:55;3.90;;;1.90;;
61572;SDS011;47465;43.094;12.434;2024-03-22T05:56:21;4.40;;;1.98;;
61572;SDS011;47465;43.094;12.434;2024-03-22T05:58:48;4.22;;;2.33;;
61572;SDS011;47465;43.094;12.434;2024-03-22T06:01:14;3.95;;;2.03;;
61572;SDS011;47465;43.094;12.434;2024-03-22T06:03:40;4.80;;;1.73;;
61572;SDS011;47465;43.094;12.434;2024-03-22T06:06:08;5.88;;;2.33;;
61572;SDS011;47465;43.094;12.434;2024-03-22T06:11:06;9.43;;;4.25;;
61572;SDS011;47465;43.094;12.434;2024-03-22T06:13:32;12.57;;;4.22;;
61572;SDS011;47465;43.094;12.434;2024-03-22T06:16:05;10.30;;;4.38;;
61572;SDS011;47465;43.094;12.434;2024-03-22T06:18:31;10.02;;;4.30;;
61572;SDS011;47465;43.094;12.434;2024-03-22T06:20:58;9.10;;;4.20;;
61572;SDS011;47465;43.094;12.434;2024-03-22T06:23:31;8.77;;;4.70;;
61572;SDS011;47465;43.094;12.434;2024-03-22T06:25:59;12.18;;;5.20;;
61572;SDS011;47465;43.094;12.434;2024-03-22T06:28:32;12.18;;;4.40;;
61572;SDS011;47465;43.094;12.434;2024-03-22T07:38:48;13.95;;;6.53;;
61572;SDS011;47465;43.094;12.434;2024-03-22T07:43:53;11.75;;;6.05;;
61572;SDS011;47465;43.094;12.434;2024-03-22T07:46:20;13.95;;;6.40;;
61572;SDS011;47465;43.094;12.434;2024-03-22T07:51:35;13.38;;;6.68;;
61572;SDS011;47465;43.094;12.434;2024-03-22T07:54:02;12.38;;;6.40;;
61572;SDS011;47465;43.094;12.434;2024-03-22T07:56:29;12.23;;;6.05;;
61572;SDS011;47465;43.094;12.434;2024-03-22T07:58:56;12.57;;;6.22;;
61572;SDS011;47465;43.094;12.434;2024-03-22T08:01:25;15.63;;;7.32;;
61572;SDS011;47465;43.094;12.434;2024-03-22T08:03:51;15.48;;;6.82;;
61572;SDS011;47465;43.094;12.434;2024-03-22T08:06:18;15.35;;;7.05;;
61572;SDS011;47465;43.094;12.434;2024-03-22T08:08:45;16.67;;;7.88;;
61572;SDS011;47465;43.094;12.434;2024-03-22T08:11:11;16.00;;;7.93;;
61572;SDS011;47465;43.094;12.434;2024-03-22T08:13:37;17.42;;;7.65;;
61572;SDS011;47465;43.094;12.434;2024-03-22T08:18:35;14.98;;;6.97;;
61572;SDS011;47465;43.094;12.434;2024-03-22T08:21:01;17.15;;;8.15;;
61572;SDS011;47465;43.094;12.434;2024-03-22T08:23:29;14.65;;;7.28;;
61572;SDS011;47465;43.094;12.434;2024-03-22T08:25:55;14.02;;;6.32;;
61572;SDS011;47465;43.094;12.434;2024-03-22T08:28:22;14.55;;;6.78;;
61572;SDS011;47465;43.094;12.434;2024-03-22T08:30:48;15.82;;;6.40;;
61572;SDS011;47465;43.094;12.434;2024-03-22T08:33:14;18.08;;;7.35;;
61572;SDS011;47465;43.094;12.434;2024-03-22T08:35:42;13.25;;;6.32;;
61572;SDS011;47465;43.094;12.434;2024-03-22T08:38:08;15.75;;;7.20;;
61572;SDS011;47465;43.094;12.434;2024-03-22T08:40:37;12.77;;;6.53;;
61572;SDS011;47465;43.094;12.434;2024-03-22T08:43:03;12.52;;;6.35;;
61572;SDS011;47465;43.094;12.434;2024-03-22T08:45:32;14.90;;;6.45;;
61572;SDS011;47465;43.094;12.434;2024-03-22T08:48:08;13.88;;;6.93;;
61572;SDS011;47465;43.094;12.434;2024-03-22T08:50:34;14.05;;;6.53;;
61572;SDS011;47465;43.094;12.434;2024-03-22T08:53:09;13.30;;;6.43;;
61572;SDS011;47465;43.094;12.434;2024-03-22T08:55:40;16.05;;;6.05;;
61572;SDS011;47465;43.094;12.434;2024-03-22T08:58:10;13.15;;;6.93;;
61572;SDS011;47465;43.094;12.434;2024-03-22T09:00:36;11.13;;;6.05;;
61572;SDS011;47465;43.094;12.434;2024-03-22T09:03:03;11.43;;;5.72;;
61572;SDS011;47465;43.094;12.434;2024-03-22T09:05:29;11.63;;;5.53;;
61572;SDS011;47465;43.094;12.434;2024-03-22T09:07:55;10.40;;;5.28;;
61572;SDS011;47465;43.094;12.434;2024-03-22T09:10:22;10.68;;;4.97;;
61572;SDS011;47465;43.094;12.434;2024-03-22T09:12:49;8.90;;;4.45;;
61572;SDS011;47465;43.094;12.434;2024-03-22T09:15:16;9.85;;;4.88;;
61572;SDS011;47465;43.094;12.434;2024-03-22T09:17:42;7.22;;;4.38;;
61572;SDS011;47465;43.094;12.434;2024-03-22T09:20:09;7.50;;;4.72;;
61572;SDS011;47465;43.094;12.434;2024-03-22T09:22:36;8.68;;;4.07;;
61572;SDS011;47465;43.094;12.434;2024-03-22T09:25:04;6.53;;;4.03;;
61572;SDS011;47465;43.094;12.434;2024-03-22T09:27:31;7.65;;;3.90;;
61572;SDS011;47465;43.094;12.434;2024-03-22T09:29:58;8.63;;;3.95;;
61572;SDS011;47465;43.094;12.434;2024-03-22T09:32:26;8.45;;;4.47;;
61572;SDS011;47465;43.094;12.434;2024-03-22T09:34:52;9.15;;;4.15;;
61572;SDS011;47465;43.094;12.434;2024-03-22T09:37:18;8.73;;;4.35;;
61572;SDS011;47465;43.094;12.434;2024-03-22T09:39:44;6.60;;;3.90;;
61572;SDS011;47465;43.094;12.434;2024-03-22T09:42:11;7.30;;;3.80;;
61572;SDS011;47465;43.094;12.434;2024-03-22T09:44:41;7.15;;;4.10;;
61572;SDS011;47465;43.094;12.434;2024-03-22T09:47:14;7.95;;;3.60;;
61572;SDS011;47465;43.094;12.434;2024-03-22T09:49:41;8.85;;;4.03;;
61572;SDS011;47465;43.094;12.434;2024-03-22T09:52:11;6.68;;;3.67;;
61572;SDS011;47465;43.094;12.434;2024-03-22T09:54:40;6.47;;;3.67;;
61572;SDS011;47465;43.094;12.434;2024-03-22T09:57:07;6.07;;;3.28;;
61572;SDS011;47465;43.094;12.434;2024-03-22T09:59:37;7.40;;;4.00;;
61572;SDS011;47465;43.094;12.434;2024-03-22T10:02:03;6.63;;;3.28;;
61572;SDS011;47465;43.094;12.434;2024-03-22T10:04:31;5.50;;;3.55;;
61572;SDS011;47465;43.094;12.434;2024-03-22T10:06:57;6.95;;;4.10;;
61572;SDS011;47465;43.094;12.434;2024-03-22T10:09:28;5.75;;;3.35;;
61572;SDS011;47465;43.094;12.434;2024-03-22T10:11:55;7.82;;;4.82;;
61572;SDS011;47465;43.094;12.434;2024-03-22T10:14:21;6.60;;;3.75;;
61572;SDS011;47465;43.094;12.434;2024-03-22T10:16:47;8.20;;;4.03;;
61572;SDS011;47465;43.094;12.434;2024-03-22T10:19:13;5.97;;;3.65;;
61572;SDS011;47465;43.094;12.434;2024-03-22T10:21:40;5.80;;;3.42;;
61572;SDS011;47465;43.094;12.434;2024-03-22T10:24:07;7.70;;;3.95;;
61572;SDS011;47465;43.094;12.434;2024-03-22T10:26:33;6.95;;;3.88;;
61572;SDS011;47465;43.094;12.434;2024-03-22T10:29:03;5.18;;;3.30;;
61572;SDS011;47465;43.094;12.434;2024-03-22T10:31:35;5.03;;;3.13;;
61572;SDS011;47465;43.094;12.434;2024-03-22T10:34:03;4.95;;;3.10;;
61572;SDS011;47465;43.094;12.434;2024-03-22T10:36:29;6.85;;;3.92;;
61572;SDS011;47465;43.094;12.434;2024-03-22T10:38:59;4.60;;;2.58;;
61572;SDS011;47465;43.094;12.434;2024-03-22T10:41:29;6.57;;;3.28;;
61572;SDS011;47465;43.094;12.434;2024-03-22T10:43:55;5.40;;;3.13;;
61572;SDS011;47465;43.094;12.434;2024-03-22T10:46:21;4.78;;;3.03;;
61572;SDS011;47465;43.094;12.434;2024-03-22T10:48:53;6.57;;;3.78;;
61572;SDS011;47465;43.094;12.434;2024-03-22T10:51:20;8.52;;;3.25;;
61572;SDS011;47465;43.094;12.434;2024-03-22T10:53:48;5.18;;;2.63;;
61572;SDS011;47465;43.094;12.434;2024-03-22T10:56:18;4.82;;;2.75;;
61572;SDS011;47465;43.094;12.434;2024-03-22T10:58:44;5.40;;;3.08;;
61572;SDS011;47465;43.094;12.434;2024-03-22T11:01:21;5.57;;;2.90;;
61572;SDS011;47465;43.094;12.434;2024-03-22T11:03:47;4.60;;;2.78;;
61572;SDS011;47465;43.094;12.434;2024-03-22T11:06:17;6.20;;;2.95;;
61572;SDS011;47465;43.094;12.434;2024-03-22T11:08:44;4.00;;;2.38;;
61572;SDS011;47465;43.094;12.434;2024-03-22T11:11:18;5.50;;;2.88;;
61572;SDS011;47465;43.094;12.434;2024-03-22T11:13:46;6.05;;;3.50;;
61572;SDS011;47465;43.094;12.434;2024-03-22T11:18:40;6.43;;;3.17;;
61572;SDS011;47465;43.094;12.434;2024-03-22T11:21:07;5.75;;;2.60;;
61572;SDS011;47465;43.094;12.434;2024-03-22T11:23:34;6.05;;;3.25;;
61572;SDS011;47465;43.094;12.434;2024-03-22T11:26:04;5.43;;;3.20;;
61572;SDS011;47465;43.094;12.434;2024-03-22T11:28:33;5.18;;;2.85;;
61572;SDS011;47465;43.094;12.434;2024-03-22T11:30:59;5.50;;;2.75;;
61572;SDS011;47465;43.094;12.434;2024-03-22T11:33:25;4.47;;;2.50;;
61572;SDS011;47465;43.094;12.434;2024-03-22T11:35:52;4.80;;;2.80;;
61572;SDS011;47465;43.094;12.434;2024-03-22T11:38:18;5.15;;;2.15;;
61572;SDS011;47465;43.094;12.434;2024-03-22T11:40:44;5.70;;;3.03;;
61572;SDS011;47465;43.094;12.434;2024-03-22T11:43:10;5.80;;;3.10;;
61572;SDS011;47465;43.094;12.434;2024-03-22T11:45:44;6.82;;;2.83;;
61572;SDS011;47465;43.094;12.434;2024-03-22T11:48:10;5.32;;;3.35;;
61572;SDS011;47465;43.094;12.434;2024-03-22T11:50:37;6.82;;;3.95;;
61572;SDS011;47465;43.094;12.434;2024-03-22T11:53:05;5.97;;;3.38;;
61572;SDS011;47465;43.094;12.434;2024-03-22T11:55:32;4.93;;;2.85;;
61572;SDS011;47465;43.094;12.434;2024-03-22T11:58:00;4.85;;;2.33;;
61572;SDS011;47465;43.094;12.434;2024-03-22T12:00:27;6.28;;;2.80;;
61572;SDS011;47465;43.094;12.434;2024-03-22T12:02:55;4.97;;;2.83;;
61572;SDS011;47465;43.094;12.434;2024-03-22T12:05:21;4.20;;;2.40;;
61572;SDS011;47465;43.094;12.434;2024-03-22T12:07:47;4.93;;;2.83;;
61572;SDS011;47465;43.094;12.434;2024-03-22T12:10:13;4.47;;;2.40;;
61572;SDS011;47465;43.094;12.434;2024-03-22T12:12:39;4.43;;;2.30;;
61572;SDS011;47465;43.094;12.434;2024-03-22T12:15:05;3.85;;;2.20;;
61572;SDS011;47465;43.094;12.434;2024-03-22T12:17:32;4.07;;;2.42;;
61572;SDS011;47465;43.094;12.434;2024-03-22T12:20:03;4.13;;;2.22;;
61572;SDS011;47465;43.094;12.434;2024-03-22T12:22:30;3.22;;;2.20;;
61572;SDS011;47465;43.094;12.434;2024-03-22T12:24:56;4.25;;;1.92;;
61572;SDS011;47465;43.094;12.434;2024-03-22T12:27:22;3.20;;;2.25;;
61572;SDS011;47465;43.094;12.434;2024-03-22T12:29:48;3.90;;;2.10;;
61572;SDS011;47465;43.094;12.434;2024-03-22T12:32:15;3.10;;;2.17;;
61572;SDS011;47465;43.094;12.434;2024-03-22T12:34:41;4.53;;;2.58;;
61572;SDS011;47465;43.094;12.434;2024-03-22T12:37:09;4.32;;;2.20;;
61572;SDS011;47465;43.094;12.434;2024-03-22T12:39:36;4.25;;;2.72;;
61572;SDS011;47465;43.094;12.434;2024-03-22T12:42:02;3.03;;;1.95;;
61572;SDS011;47465;43.094;12.434;2024-03-22T12:44:28;3.80;;;2.10;;
61572;SDS011;47465;43.094;12.434;2024-03-22T12:46:54;4.43;;;2.20;;
61572;SDS011;47465;43.094;12.434;2024-03-22T12:49:21;4.10;;;1.92;;
61572;SDS011;47465;43.094;12.434;2024-03-22T12:51:47;3.97;;;2.03;;
61572;SDS011;47465;43.094;12.434;2024-03-22T12:54:16;2.90;;;2.17;;
61572;SDS011;47465;43.094;12.434;2024-03-22T12:56:44;4.53;;;2.65;;
61572;SDS011;47465;43.094;12.434;2024-03-22T12:59:10;3.58;;;1.92;;
61572;SDS011;47465;43.094;12.434;2024-03-22T13:01:36;3.10;;;1.92;;
61572;SDS011;47465;43.094;12.434;2024-03-22T13:04:03;2.88;;;1.85;;
61572;SDS011;47465;43.094;12.434;2024-03-22T13:06:33;3.75;;;2.50;;
61572;SDS011;47465;43.094;12.434;2024-03-22T13:09:00;3.60;;;2.08;;
61572;SDS011;47465;43.094;12.434;2024-03-22T13:11:28;3.53;;;1.95;;
61572;SDS011;47465;43.094;12.434;2024-03-22T13:13:54;3.17;;;2.13;;
61572;SDS011;47465;43.094;12.434;2024-03-22T13:18:50;4.22;;;2.08;;
61572;SDS011;47465;43.094;12.434;2024-03-22T13:21:19;4.93;;;2.42;;
61572;SDS011;47465;43.094;12.434;2024-03-22T13:26:20;5.03;;;2.70;;
61572;SDS011;47465;43.094;12.434;2024-03-22T13:28:51;3.70;;;2.35;;
61572;SDS011;47465;43.094;12.434;2024-03-22T13:31:19;3.72;;;2.05;;
61572;SDS011;47465;43.094;12.434;2024-03-22T13:33:46;2.97;;;1.90;;
61572;SDS011;47465;43.094;12.434;2024-03-22T13:36:14;3.83;;;1.80;;
61572;SDS011;47465;43.094;12.434;2024-03-22T13:38:47;4.05;;;2.38;;
61572;SDS011;47465;43.094;12.434;2024-03-22T13:41:14;3.17;;;2.03;;
61572;SDS011;47465;43.094;12.434;2024-03-22T13:43:42;3.78;;;2.33;;
61572;SDS011;47465;43.094;12.434;2024-03-22T13:51:54;5.00;;;2.22;;
61572;SDS011;47465;43.094;12.434;2024-03-22T13:54:26;5.32;;;1.88;;
61572;SDS011;47465;43.094;12.434;2024-03-22T13:57:01;3.13;;;1.90;;
61572;SDS011;47465;43.094;12.434;2024-03-22T13:59:31;3.53;;;2.05;;
61572;SDS011;47465;43.094;12.434;2024-03-22T14:02:01;3.42;;;1.98;;
61572;SDS011;47465;43.094;12.434;2024-03-22T14:04:30;3.45;;;2.28;;
61572;SDS011;47465;43.094;12.434;2024-03-22T14:07:01;4.05;;;1.98;;
61572;SDS011;47465;43.094;12.434;2024-03-22T14:09:39;5.55;;;2.08;;
61572;SDS011;47465;43.094;12.434;2024-03-22T14:12:08;4.07;;;2.13;;
61572;SDS011;47465;43.094;12.434;2024-03-22T14:14:35;6.18;;;2.75;;
61572;SDS011;47465;43.094;12.434;2024-03-22T14:17:01;8.68;;;3.55;;
61572;SDS011;47465;43.094;12.434;2024-03-22T14:19:35;6.43;;;3.35;;
61572;SDS011;47465;43.094;12.434;2024-03-22T14:22:01;4.50;;;2.13;;
61572;SDS011;47465;43.094;12.434;2024-03-22T14:24:28;4.43;;;2.00;;
61572;SDS011;47465;43.094;12.434;2024-03-22T14:26:58;3.75;;;2.08;;
61572;SDS011;47465;43.094;12.434;2024-03-22T14:29:28;3.22;;;1.67;;
61572;SDS011;47465;43.094;12.434;2024-03-22T14:31:55;3.22;;;1.95;;
61572;SDS011;47465;43.094;12.434;2024-03-22T14:34:39;2.83;;;2.03;;
61572;SDS011;47465;43.094;12.434;2024-03-22T14:37:05;3.72;;;2.28;;
61572;SDS011;47465;43.094;12.434;2024-03-22T14:39:32;4.13;;;2.50;;
61572;SDS011;47465;43.094;12.434;2024-03-22T14:42:01;3.33;;;2.10;;
61572;SDS011;47465;43.094;12.434;2024-03-22T14:44:27;3.85;;;2.53;;
61572;SDS011;47465;43.094;12.434;2024-03-22T14:46:53;3.20;;;1.98;;
61572;SDS011;47465;43.094;12.434;2024-03-22T14:49:20;3.88;;;2.20;;
61572;SDS011;47465;43.094;12.434;2024-03-22T14:51:56;3.17;;;2.13;;
61572;SDS011;47465;43.094;12.434;2024-03-22T14:54:30;4.68;;;2.40;;
61572;SDS011;47465;43.094;12.434;2024-03-22T14:57:08;3.72;;;2.20;;
61572;SDS011;47465;43.094;12.434;2024-03-22T15:02:05;4.15;;;2.10;;
61572;SDS011;47465;43.094;12.434;2024-03-22T15:04:37;3.75;;;2.10;;
61572;SDS011;47465;43.094;12.434;2024-03-22T15:09:59;4.45;;;2.45;;
61572;SDS011;47465;43.094;12.434;2024-03-22T15:12:26;5.45;;;2.03;;
61572;SDS011;47465;43.094;12.434;2024-03-22T15:14:53;4.00;;;2.15;;
61572;SDS011;47465;43.094;12.434;2024-03-22T15:17:25;6.50;;;2.22;;
61572;SDS011;47465;43.094;12.434;2024-03-22T15:19:58;4.68;;;2.03;;
61572;SDS011;47465;43.094;12.434;2024-03-22T15:22:39;3.33;;;2.28;;
61572;SDS011;47465;43.094;12.434;2024-03-22T16:12:10;4.10;;;2.50;;
61572;SDS011;47465;43.094;12.434;2024-03-22T16:59:08;7.80;;;3.88;;
61572;SDS011;47465;43.094;12.434;2024-03-22T17:01:37;7.95;;;3.90;;
61572;SDS011;47465;43.094;12.434;2024-03-22T17:04:08;8.18;;;3.70;;
61572;SDS011;47465;43.094;12.434;2024-03-22T17:06:35;5.22;;;3.10;;
61572;SDS011;47465;43.094;12.434;2024-03-22T17:09:08;8.13;;;3.70;;
61572;SDS011;47465;43.094;12.434;2024-03-22T17:11:35;13.77;;;4.82;;
61572;SDS011;47465;43.094;12.434;2024-03-22T17:20:55;12.50;;;6.55;;
61572;SDS011;47465;43.094;12.434;2024-03-22T17:28:35;47.72;;;26.17;;
61572;SDS011;47465;43.094;12.434;2024-03-22T17:31:15;14.38;;;8.35;;
61572;SDS011;47465;43.094;12.434;2024-03-22T17:40:07;7.40;;;4.25;;
61572;SDS011;47465;43.094;12.434;2024-03-22T17:42:40;9.63;;;5.30;;
61572;SDS011;47465;43.094;12.434;2024-03-22T17:52:15;19.70;;;9.95;;
61572;SDS011;47465;43.094;12.434;2024-03-22T18:27:18;12.63;;;6.10;;
61572;SDS011;47465;43.094;12.434;2024-03-22T18:29:45;8.32;;;5.25;;
61572;SDS011;47465;43.094;12.434;2024-03-22T18:32:20;9.75;;;5.15;;
61572;SDS011;47465;43.094;12.434;2024-03-22T18:34:49;10.40;;;5.45;;
61572;SDS011;47465;43.094;12.434;2024-03-22T18:39:44;8.98;;;5.55;;
61572;SDS011;47465;43.094;12.434;2024-03-22T18:52:25;12.10;;;6.13;;